createdAt,value
2023-05-02T00:02:07.457Z,101809.13
2023-05-02T00:04:34.844Z,101810.84
2023-05-02T00:07:02.018Z,101818.72
2023-05-02T00:09:29.593Z,101823.06
2023-05-02T00:11:56.649Z,101815.13
2023-05-02T00:14:25.643Z,101823.03
2023-05-02T00:16:52.790Z,101823.91
2023-05-02T00:19:19.819Z,101825.66
2023-05-02T00:21:50.085Z,101827.41
2023-05-02T00:24:18.541Z,101831.78
2023-05-02T00:26:46.194Z,101836.16
2023-05-02T00:29:13.172Z,101833.50
2023-05-02T00:31:41.715Z,101834.38
2023-05-02T00:34:08.748Z,101832.59
2023-05-02T00:36:35.844Z,101829.06
2023-05-02T00:39:02.867Z,101838.72
2023-05-02T00:41:29.797Z,101835.16
2023-05-02T00:43:58.240Z,101836.81
2023-05-02T00:46:25.713Z,101834.25
2023-05-02T00:48:53.208Z,101834.34
2023-05-02T00:51:20.357Z,101837.00
2023-05-02T00:53:47.833Z,101840.50
2023-05-02T00:56:15.294Z,101848.41
2023-05-02T00:58:44.048Z,101844.88
2023-05-02T01:01:39.602Z,101844.81
2023-05-02T01:04:41.082Z,101848.28
2023-05-02T01:08:23.828Z,101843.06
2023-05-02T01:11:17.085Z,101845.84
2023-05-02T01:13:47.182Z,101840.59
2023-05-02T01:16:18.649Z,101847.69
2023-05-02T01:18:50.612Z,101847.69
2023-05-02T01:21:17.835Z,101845.94
2023-05-02T01:24:14.079Z,101860.00
2023-05-02T01:27:11.489Z,101855.66
2023-05-02T01:29:41.043Z,101855.72
2023-05-02T01:32:10.870Z,101848.66
2023-05-02T01:34:44.671Z,101851.31
2023-05-02T01:37:15.357Z,101851.31
2023-05-02T01:39:44.519Z,101854.84
2023-05-02T01:42:13.558Z,101861.84
2023-05-02T01:44:43.416Z,101856.59
2023-05-02T01:47:10.991Z,101863.66
2023-05-02T01:49:40.911Z,101856.59
2023-05-02T01:52:12.792Z,101864.50
2023-05-02T01:54:43.358Z,101864.50
2023-05-02T01:57:13.015Z,101877.69
2023-05-02T01:59:42.320Z,101886.50
2023-05-02T02:02:12.942Z,101884.72
2023-05-02T02:04:41.636Z,101877.75
2023-05-02T02:07:14.111Z,101884.75
2023-05-02T02:09:41.918Z,101883.94
2023-05-02T02:12:17.491Z,101883.94
2023-05-02T02:14:56.081Z,101884.91
2023-05-02T02:17:32.345Z,101891.88
2023-05-02T02:20:05.334Z,101890.13
2023-05-02T02:22:39.060Z,101895.41
2023-05-02T02:25:11.740Z,101896.34
2023-05-02T02:27:40.528Z,101900.72
2023-05-02T02:30:09.533Z,101904.22
2023-05-02T02:32:38.444Z,101904.19
2023-05-02T02:35:07.409Z,101895.44
2023-05-02T02:38:14.763Z,101896.41
2023-05-02T02:41:28.114Z,101898.22
2023-05-02T02:44:16.582Z,101900.88
2023-05-02T02:47:09.148Z,101894.75
2023-05-02T02:50:10.560Z,101908.88
2023-05-02T02:53:15.422Z,101904.53
2023-05-02T02:56:00.560Z,101911.56
2023-05-02T02:58:47.352Z,101908.09
2023-05-02T03:01:24.323Z,101912.50
2023-05-02T03:03:54.670Z,101923.94
2023-05-02T03:06:21.967Z,101918.72
2023-05-02T03:08:50.438Z,101926.69
2023-05-02T03:11:20.659Z,101927.66
2023-05-02T03:13:47.721Z,101931.16
2023-05-02T03:16:41.295Z,101932.09
2023-05-02T03:19:12.904Z,101941.81
2023-05-02T03:21:39.945Z,101948.00
2023-05-02T03:24:13.527Z,101946.22
2023-05-02T03:26:40.608Z,101954.94
2023-05-02T03:29:10.001Z,101961.13
2023-05-02T03:31:40.662Z,101960.28
2023-05-02T03:34:07.794Z,101964.69
2023-05-02T03:36:36.413Z,101970.91
2023-05-02T03:39:03.483Z,101968.28
2023-05-02T03:41:30.724Z,101977.97
2023-05-02T03:44:04.689Z,101982.38
2023-05-02T03:46:32.184Z,101982.44
2023-05-02T03:48:59.224Z,101982.44
2023-05-02T03:51:26.869Z,101992.09
2023-05-02T03:53:56.497Z,101987.69
2023-05-02T03:56:24.250Z,101994.75
2023-05-02T03:59:01.746Z,102001.78
2023-05-02T04:01:28.902Z,101994.78
2023-05-02T04:03:58.164Z,102009.66
2023-05-02T04:06:27.316Z,102009.66
2023-05-02T04:08:59.525Z,102015.81
2023-05-02T04:11:34.022Z,102009.72
2023-05-02T04:14:04.321Z,102015.88
2023-05-02T04:16:31.389Z,102021.16
2023-05-02T04:18:59.367Z,102024.72
2023-05-02T04:21:27.632Z,102016.81
2023-05-02T04:23:54.620Z,102020.34
2023-05-02T04:26:22.824Z,102030.91
2023-05-02T04:28:56.338Z,102035.31
2023-05-02T04:31:23.469Z,102037.94
2023-05-02T04:33:52.211Z,102040.59
2023-05-02T04:36:25.226Z,102053.72
2023-05-02T04:38:52.416Z,102047.56
2023-05-02T04:41:19.810Z,102059.00
2023-05-02T04:43:52.764Z,102061.63
2023-05-02T04:46:19.805Z,102064.28
2023-05-02T04:48:46.870Z,102066.00
2023-05-02T04:51:16.835Z,102070.38
2023-05-02T04:53:45.912Z,102075.69
2023-05-02T04:56:13.062Z,102076.53
2023-05-02T04:58:40.191Z,102080.00
2023-05-02T05:01:09.557Z,102079.06
2023-05-02T05:03:37.173Z,102086.66
2023-05-02T05:06:05.514Z,102085.03
2023-05-02T05:08:33.746Z,102096.03
2023-05-02T05:11:01.782Z,102090.47
2023-05-02T05:13:28.750Z,102096.22
2023-05-02T05:15:56.159Z,102104.44
2023-05-02T05:18:27.286Z,102105.50
2023-05-02T05:20:54.408Z,102117.94
2023-05-02T05:23:21.521Z,102121.56
2023-05-02T05:25:48.534Z,102121.63
2023-05-02T05:28:18.571Z,102121.66
2023-05-02T05:30:46.595Z,102118.22
2023-05-02T05:33:17.545Z,102119.94
2023-05-02T05:35:45.781Z,102125.25
2023-05-02T05:38:12.780Z,102133.22
2023-05-02T05:40:42.665Z,102133.19
2023-05-02T05:43:10.304Z,102146.38
2023-05-02T05:45:39.047Z,102140.22
2023-05-02T05:48:07.003Z,102151.59
2023-05-02T05:50:39.556Z,102146.31
2023-05-02T05:53:06.576Z,102157.72
2023-05-02T05:55:36.588Z,102149.81
2023-05-02T05:58:06.151Z,102163.81
2023-05-02T06:00:36.384Z,102163.78
2023-05-02T06:03:04.128Z,102168.09
2023-05-02T06:05:33.733Z,102170.75
2023-05-02T06:08:00.760Z,102171.56
2023-05-02T06:10:28.074Z,102176.69
2023-05-02T06:12:55.263Z,102182.91
2023-05-02T06:15:27.070Z,102184.66
2023-05-02T06:17:54.209Z,102188.22
2023-05-02T06:20:21.242Z,102191.75
2023-05-02T06:22:48.424Z,102190.88
2023-05-02T06:25:15.434Z,102198.78
2023-05-02T06:27:42.451Z,102198.81
2023-05-02T06:30:10.089Z,102207.66
2023-05-02T06:32:37.069Z,102212.06
2023-05-02T06:35:04.629Z,102212.09
2023-05-02T06:37:35.712Z,102217.41
2023-05-02T06:40:04.115Z,102215.72
2023-05-02T06:42:31.354Z,102226.28
2023-05-02T06:44:58.231Z,102222.78
2023-05-02T06:47:25.803Z,102236.78
2023-05-02T06:49:53.717Z,102234.13
2023-05-02T06:52:20.748Z,102239.28
2023-05-02T06:54:47.758Z,102241.81
2023-05-02T06:57:15.561Z,102248.75
2023-05-02T06:59:43.117Z,102254.78
2023-05-02T07:02:10.279Z,102254.69
2023-05-02T07:04:37.358Z,102259.03
2023-05-02T07:07:04.429Z,102267.00
2023-05-02T07:09:31.512Z,102271.44
2023-05-02T07:11:58.726Z,102278.50
2023-05-02T07:14:25.699Z,102283.78
2023-05-02T07:16:53.961Z,102289.03
2023-05-02T07:19:21.013Z,102290.84
2023-05-02T07:21:48.370Z,102293.47
2023-05-02T07:24:15.762Z,102287.28
2023-05-02T07:26:42.748Z,102303.94
2023-05-02T07:29:09.834Z,102302.13
2023-05-02T07:31:36.917Z,102317.00
2023-05-02T07:34:03.918Z,102314.34
2023-05-02T07:36:31.306Z,102312.72
2023-05-02T07:38:58.435Z,102322.22
2023-05-02T07:41:25.461Z,102320.56
2023-05-02T07:43:52.442Z,102327.50
2023-05-02T07:46:19.451Z,102333.66
2023-05-02T07:48:46.488Z,102323.81
2023-05-02T07:51:13.543Z,102328.97
2023-05-02T07:53:40.678Z,102328.84
2023-05-02T07:56:08.879Z,102336.63
2023-05-02T07:58:39.225Z,102333.22
2023-05-02T08:01:06.224Z,102328.94
2023-05-02T08:03:33.383Z,102329.94
2023-05-02T08:06:02.189Z,102335.22
2023-05-02T08:08:29.271Z,102343.03
2023-05-02T08:10:56.225Z,102339.44
2023-05-02T08:13:23.262Z,102344.81
2023-05-02T08:15:50.340Z,102339.63
2023-05-02T08:18:17.375Z,102352.91
2023-05-02T08:20:44.302Z,102353.81
2023-05-02T08:23:11.250Z,102358.16
2023-05-02T08:25:38.239Z,102366.94
2023-05-02T08:28:05.234Z,102366.91
2023-05-02T08:30:32.232Z,102374.84
2023-05-02T08:32:59.265Z,102381.84
2023-05-02T08:35:26.418Z,102378.25
2023-05-02T08:37:53.366Z,102380.91
2023-05-02T08:40:34.070Z,102386.19
2023-05-02T08:43:08.348Z,102386.19
2023-05-02T08:45:40.820Z,102389.72
2023-05-02T08:48:10.989Z,102394.28
2023-05-02T08:50:45.653Z,102387.22
2023-05-02T08:53:14.479Z,102401.41
2023-05-02T08:55:42.365Z,102400.69
2023-05-02T08:58:10.775Z,102405.09
2023-05-02T09:00:42.894Z,102402.50
2023-05-02T09:03:28.956Z,102406.16
2023-05-02T09:06:15.329Z,102415.84
2023-05-02T09:08:46.438Z,102419.25
2023-05-02T09:11:16.489Z,102431.31
2023-05-02T09:13:49.914Z,102430.16
2023-05-02T09:16:22.544Z,102431.84
2023-05-02T09:18:55.001Z,102435.28
2023-05-02T09:21:37.326Z,102437.78
2023-05-02T09:24:22.417Z,102439.84
2023-05-02T09:27:05.679Z,102443.53
2023-05-02T09:29:37.970Z,102444.47
2023-05-02T09:32:06.944Z,102450.66
2023-05-02T09:34:34.436Z,102453.25
2023-05-02T09:37:03.852Z,102458.44
2023-05-02T09:39:31.356Z,102458.38
2023-05-02T09:41:59.462Z,102465.38
2023-05-02T09:44:37.927Z,102464.56
2023-05-02T09:47:06.718Z,102470.66
2023-05-02T09:49:46.276Z,102479.25
2023-05-02T09:52:16.273Z,102481.69
2023-05-02T09:54:44.369Z,102477.16
2023-05-02T09:57:11.581Z,102475.88
2023-05-02T09:59:52.956Z,102477.28
2023-05-02T10:02:22.163Z,102471.81
2023-05-02T10:04:50.660Z,102468.91
2023-05-02T10:07:17.944Z,102477.50
2023-05-02T10:09:47.186Z,102483.44
2023-05-02T10:12:22.504Z,102480.97
2023-05-02T10:14:58.087Z,102479.09
2023-05-02T10:17:31.804Z,102491.25
2023-05-02T10:20:05.684Z,102479.75
2023-05-02T10:22:35.294Z,102485.16
2023-05-02T10:25:04.177Z,102487.88
2023-05-02T10:27:32.913Z,102484.53
2023-05-02T10:30:02.361Z,102484.56
2023-05-02T10:32:30.165Z,102489.81
2023-05-02T10:34:57.828Z,102484.53
2023-05-02T10:37:30.410Z,102493.41
2023-05-02T10:39:59.184Z,102489.09
2023-05-02T10:42:28.103Z,102490.81
2023-05-02T10:44:55.193Z,102486.00
2023-05-02T10:47:25.188Z,102480.38
2023-05-02T10:50:01.926Z,102476.72
2023-05-02T10:52:38.289Z,102488.97
2023-05-02T10:55:23.966Z,102485.88
2023-05-02T10:57:59.775Z,102487.28
2023-05-02T11:00:27.936Z,102490.06
2023-05-02T11:02:55.081Z,102485.69
2023-05-02T11:05:24.217Z,102484.00
2023-05-02T11:08:19.407Z,102477.75
2023-05-02T11:10:47.493Z,102479.88
2023-05-02T11:13:14.562Z,102483.66
2023-05-02T11:15:41.511Z,102479.66
2023-05-02T11:18:14.353Z,102475.81
2023-05-02T11:20:44.133Z,102479.03
2023-05-02T11:23:15.358Z,102473.53
2023-05-02T11:25:47.504Z,102482.38
2023-05-02T11:28:40.685Z,102481.31
2023-05-02T11:31:27.578Z,102480.78
2023-05-02T11:34:04.632Z,102479.69
2023-05-02T11:36:34.479Z,102485.00
2023-05-02T11:39:03.363Z,102487.47
2023-05-02T11:41:43.903Z,102493.50
2023-05-02T11:44:10.958Z,102488.78
2023-05-02T11:46:40.398Z,102482.25
2023-05-02T11:49:09.652Z,102492.16
2023-05-02T11:51:37.675Z,102489.69
2023-05-02T11:54:08.168Z,102485.19
2023-05-02T11:56:35.301Z,102479.88
2023-05-02T11:59:04.157Z,102490.28
2023-05-02T12:01:31.436Z,102487.47
2023-05-02T12:04:10.408Z,102497.72
2023-05-02T12:06:37.754Z,102490.53
2023-05-02T12:09:17.138Z,102491.84
2023-05-02T12:11:44.843Z,102496.19
2023-05-02T12:14:12.548Z,102488.34
2023-05-02T12:16:39.908Z,102500.25
2023-05-02T12:19:07.118Z,102498.09
2023-05-02T12:21:34.614Z,102494.44
2023-05-02T12:24:02.417Z,102494.59
2023-05-02T12:26:30.910Z,102493.84
2023-05-02T12:28:59.008Z,102501.25
2023-05-02T12:31:31.350Z,102499.44
2023-05-02T12:34:00.429Z,102499.53
2023-05-02T12:36:28.693Z,102499.91
2023-05-02T12:39:02.177Z,102511.69
2023-05-02T12:41:35.540Z,102513.38
2023-05-02T12:44:04.337Z,102501.06
2023-05-02T12:46:31.991Z,102506.44
2023-05-02T12:49:05.638Z,102507.94
2023-05-02T12:51:34.359Z,102504.34
2023-05-02T12:54:01.635Z,102510.63
2023-05-02T12:56:32.411Z,102507.19
2023-05-02T12:59:01.420Z,102511.53
2023-05-02T13:01:28.737Z,102506.97
2023-05-02T13:03:55.884Z,102516.75
2023-05-02T13:06:22.958Z,102514.78
2023-05-02T13:08:49.896Z,102525.78
2023-05-02T13:11:17.936Z,102522.84
2023-05-02T13:13:44.913Z,102526.88
2023-05-02T13:16:12.127Z,102524.31
2023-05-02T13:18:39.250Z,102527.44
2023-05-02T13:21:06.367Z,102524.06
2023-05-02T13:23:33.404Z,102524.06
2023-05-02T13:26:00.592Z,102535.16
2023-05-02T13:28:29.111Z,102536.22
2023-05-02T13:30:56.102Z,102538.56
2023-05-02T13:33:23.111Z,102534.53
2023-05-02T13:35:50.149Z,102537.06
2023-05-02T13:38:17.109Z,102525.63
2023-05-02T13:40:44.133Z,102535.25
2023-05-02T13:43:11.092Z,102530.63
2023-05-02T13:45:38.104Z,102528.94
2023-05-02T13:48:05.761Z,102529.34
2023-05-02T13:50:37.209Z,102530.00
2023-05-02T13:53:04.169Z,102525.06
2023-05-02T13:55:31.229Z,102522.13
2023-05-02T13:57:58.220Z,102526.47
2023-05-02T14:00:25.298Z,102523.94
2023-05-02T14:02:53.097Z,102524.84
2023-05-02T14:05:20.407Z,102530.16
2023-05-02T14:07:47.341Z,102525.25
2023-05-02T14:10:14.400Z,102514.44
2023-05-02T14:12:41.635Z,102523.66
2023-05-02T14:15:09.103Z,102527.75
2023-05-02T14:17:36.146Z,102516.25
2023-05-02T14:20:03.794Z,102520.72
2023-05-02T14:22:31.016Z,102519.19
2023-05-02T14:24:58.034Z,102520.31
2023-05-02T14:27:25.828Z,102526.53
2023-05-02T14:29:52.967Z,102516.53
2023-05-02T14:32:19.877Z,102516.25
2023-05-02T14:34:46.827Z,102521.44
2023-05-02T14:37:13.851Z,102515.84
2023-05-02T14:39:42.517Z,102517.38
2023-05-02T14:42:09.399Z,102518.50
2023-05-02T14:44:36.605Z,102522.41
2023-05-02T14:47:03.681Z,102525.56
2023-05-02T14:49:30.748Z,102535.97
2023-05-02T14:51:58.763Z,102528.88
2023-05-02T14:54:30.494Z,102520.00
2023-05-02T14:56:59.831Z,102537.56
2023-05-02T14:59:30.710Z,102533.13
2023-05-02T15:01:57.931Z,102526.88
2023-05-02T15:04:27.128Z,102533.13
2023-05-02T15:06:55.508Z,102522.31
2023-05-02T15:09:23.398Z,102517.06
2023-05-02T15:11:50.406Z,102526.03
2023-05-02T15:14:17.449Z,102524.66
2023-05-02T15:16:44.928Z,102521.94
2023-05-02T15:19:12.057Z,102517.28
2023-05-02T15:21:39.119Z,102524.03
2023-05-02T15:24:06.654Z,102530.06
2023-05-02T15:26:33.851Z,102524.06
2023-05-02T15:29:00.918Z,102523.38
2023-05-02T15:31:28.014Z,102522.00
2023-05-02T15:33:55.151Z,102527.31
2023-05-02T15:36:29.201Z,102528.16
2023-05-02T15:38:57.173Z,102531.72
2023-05-02T15:41:27.543Z,102522.63
2023-05-02T15:43:54.651Z,102529.66
2023-05-02T15:46:22.201Z,102531.44
2023-05-02T15:48:49.682Z,102532.41
2023-05-02T15:51:17.407Z,102529.78
2023-05-02T15:53:47.492Z,102534.81
2023-05-02T15:56:14.468Z,102544.16
2023-05-02T15:58:41.524Z,102543.19
2023-05-02T16:01:08.531Z,102541.91
2023-05-02T16:03:35.811Z,102543.94
2023-05-02T16:06:05.410Z,102549.03
2023-05-02T16:08:32.419Z,102549.66
2023-05-02T16:11:01.353Z,102545.47
2023-05-02T16:13:28.287Z,102548.97
2023-05-02T16:15:56.231Z,102548.88
2023-05-02T16:18:28.154Z,102547.16
2023-05-02T16:20:58.367Z,102549.84
2023-05-02T16:23:26.101Z,102554.56
2023-05-02T16:26:01.576Z,102561.34
2023-05-02T16:28:29.366Z,102566.66
2023-05-02T16:30:56.468Z,102560.53
2023-05-02T16:33:23.548Z,102565.94
2023-05-02T16:36:01.905Z,102569.56
2023-05-02T16:38:28.964Z,102567.19
2023-05-02T16:40:57.349Z,102578.09
2023-05-02T16:43:24.798Z,102570.50
2023-05-02T16:46:03.675Z,102568.97
2023-05-02T16:48:30.940Z,102567.91
2023-05-02T16:51:01.104Z,102571.00
2023-05-02T16:53:30.546Z,102565.81
2023-05-02T16:55:59.360Z,102567.72
2023-05-02T16:58:28.917Z,102562.50
2023-05-02T17:00:56.801Z,102567.38
2023-05-02T17:03:23.903Z,102567.03
2023-05-02T17:05:50.994Z,102573.78
2023-05-02T17:08:17.964Z,102586.44
2023-05-02T17:10:51.424Z,102577.66
2023-05-02T17:13:18.659Z,102575.53
2023-05-02T17:15:45.706Z,102573.91
2023-05-02T17:18:12.765Z,102569.81
2023-05-02T17:20:41.117Z,102571.03
2023-05-02T17:23:09.103Z,102575.63
2023-05-02T17:25:36.162Z,102575.88
2023-05-02T17:28:03.373Z,102569.47
2023-05-02T17:30:32.135Z,102579.69
2023-05-02T17:32:59.316Z,102584.47
2023-05-02T17:35:26.317Z,102587.25
2023-05-02T17:37:53.369Z,102591.19
2023-05-02T17:40:20.524Z,102591.91
2023-05-02T17:42:47.499Z,102595.13
2023-05-02T17:45:14.985Z,102604.19
2023-05-02T17:47:42.128Z,102598.97
2023-05-02T17:50:09.734Z,102593.13
2023-05-02T17:52:36.743Z,102593.25
2023-05-02T17:55:04.144Z,102597.78
2023-05-02T17:57:31.124Z,102601.53
2023-05-02T17:59:59.753Z,102604.34
2023-05-02T18:02:27.590Z,102601.81
2023-05-02T18:04:54.907Z,102600.09
2023-05-02T18:07:25.108Z,102603.47
2023-05-02T18:09:52.749Z,102605.34
2023-05-02T18:12:19.748Z,102607.22
2023-05-02T18:14:46.803Z,102614.28
2023-05-02T18:17:13.882Z,102620.34
2023-05-02T18:19:41.227Z,102622.00
2023-05-02T18:22:08.536Z,102625.41
2023-05-02T18:24:36.164Z,102623.59
2023-05-02T18:27:03.371Z,102625.34
2023-05-02T18:29:31.167Z,102629.69
2023-05-02T18:31:58.314Z,102624.38
2023-05-02T18:34:25.449Z,102633.22
2023-05-02T18:36:52.500Z,102631.59
2023-05-02T18:39:21.473Z,102633.56
2023-05-02T18:41:48.469Z,102630.19
2023-05-02T18:44:15.408Z,102618.84
2023-05-02T18:46:42.412Z,102619.00
2023-05-02T18:49:09.360Z,102624.41
2023-05-02T18:51:36.374Z,102627.09
2023-05-02T18:54:03.748Z,102626.31
2023-05-02T18:56:30.966Z,102626.34
2023-05-02T18:58:58.734Z,102629.88
2023-05-02T19:01:26.075Z,102629.03
2023-05-02T19:03:54.097Z,102636.91
2023-05-02T19:06:21.292Z,102634.28
2023-05-02T19:08:49.112Z,102639.56
2023-05-02T19:11:16.108Z,102646.56
2023-05-02T19:13:43.104Z,102661.47
2023-05-02T19:16:12.596Z,102667.59
2023-05-02T19:18:40.723Z,102679.88
2023-05-02T19:21:14.363Z,102685.13
2023-05-02T19:23:43.198Z,102687.72
2023-05-02T19:26:17.904Z,102682.44
2023-05-02T19:28:45.936Z,102674.50
2023-05-02T19:31:19.183Z,102678.88
2023-05-02T19:33:52.030Z,102679.69
2023-05-02T19:36:22.022Z,102672.66
2023-05-02T19:38:58.196Z,102677.00
2023-05-02T19:41:26.196Z,102683.97
2023-05-02T19:43:53.207Z,102690.03
2023-05-02T19:46:20.370Z,102689.09
2023-05-02T19:48:47.611Z,102695.22
2023-05-02T19:51:14.647Z,102689.06
2023-05-02T19:53:41.670Z,102691.66
2023-05-02T19:56:08.725Z,102690.75
2023-05-02T19:58:36.115Z,102700.34
2023-05-02T20:01:03.430Z,102698.56
2023-05-02T20:03:30.533Z,102707.28
2023-05-02T20:05:58.505Z,102706.31
2023-05-02T20:08:27.828Z,102707.13
2023-05-02T20:10:56.293Z,102716.75
2023-05-02T20:13:23.733Z,102717.56
2023-05-02T20:15:52.629Z,102721.03
2023-05-02T20:18:20.326Z,102718.34
2023-05-02T20:20:47.344Z,102711.31
2023-05-02T20:23:14.674Z,102718.28
2023-05-02T20:25:42.770Z,102719.13
2023-05-02T20:28:10.628Z,102728.72
2023-05-02T20:30:39.741Z,102736.50
2023-05-02T20:33:14.839Z,102729.44
2023-05-02T20:35:44.343Z,102736.41
2023-05-02T20:38:12.069Z,102738.06
2023-05-02T20:40:42.669Z,102739.81
2023-05-02T20:43:09.752Z,102737.09
2023-05-02T20:45:36.832Z,102740.59
2023-05-02T20:48:04.197Z,102736.19
2023-05-02T20:50:31.553Z,102750.16
2023-05-02T20:52:59.260Z,102748.34
2023-05-02T20:55:26.498Z,102738.66
2023-05-02T20:57:53.742Z,102733.34
2023-05-02T21:00:23.677Z,102735.06
2023-05-02T21:02:50.826Z,102728.00
2023-05-02T21:05:17.977Z,102732.31
2023-05-02T21:07:45.042Z,102731.34
2023-05-02T21:10:12.253Z,102741.78
2023-05-02T21:12:39.458Z,102751.34
2023-05-02T21:15:08.233Z,102746.00
2023-05-02T21:17:35.555Z,102746.84
2023-05-02T21:20:02.936Z,102751.09
2023-05-02T21:22:30.140Z,102751.03
2023-05-02T21:24:57.246Z,102750.03
2023-05-02T21:27:24.337Z,102758.75
2023-05-02T21:29:51.459Z,102757.78
2023-05-02T21:32:18.492Z,102752.50
2023-05-02T21:34:45.712Z,102751.53
2023-05-02T21:37:12.730Z,102753.22
2023-05-02T21:39:39.605Z,102759.31
2023-05-02T21:42:06.604Z,102760.03
2023-05-02T21:44:33.562Z,102753.88
2023-05-02T21:47:00.552Z,102759.09
2023-05-02T21:49:30.074Z,102757.31
2023-05-02T21:51:58.344Z,102767.72
2023-05-02T21:54:25.677Z,102769.38
2023-05-02T21:56:55.589Z,102766.75
2023-05-02T21:59:22.557Z,102771.13
2023-05-02T22:01:49.526Z,102773.72
2023-05-02T22:04:17.448Z,102771.13
2023-05-02T22:06:52.152Z,102766.69
2023-05-02T22:09:20.643Z,102760.56
2023-05-02T22:11:47.638Z,102758.81
2023-05-02T22:14:14.651Z,102758.72
2023-05-02T22:16:41.679Z,102756.88
2023-05-02T22:19:11.457Z,102767.28
2023-05-02T22:21:38.426Z,102765.53
2023-05-02T22:24:06.145Z,102757.63
2023-05-02T22:26:33.144Z,102750.59
2023-05-02T22:29:00.143Z,102754.88
2023-05-02T22:31:27.507Z,102753.94
2023-05-02T22:33:54.644Z,102748.59
2023-05-02T22:36:21.663Z,102750.31
2023-05-02T22:38:48.655Z,102745.88
2023-05-02T22:41:15.848Z,102757.22
2023-05-02T22:43:42.835Z,102748.41
2023-05-02T22:46:09.826Z,102746.59
2023-05-02T22:48:36.911Z,102753.47
2023-05-02T22:51:04.143Z,102749.97
2023-05-02T22:53:31.351Z,102752.53
2023-05-02T22:55:58.357Z,102741.97
2023-05-02T22:58:25.325Z,102747.97
2023-05-02T23:00:52.382Z,102748.78
2023-05-02T23:03:19.489Z,102753.91
2023-05-02T23:05:46.630Z,102740.69
2023-05-02T23:08:13.674Z,102741.50
2023-05-02T23:10:40.728Z,102737.03
2023-05-02T23:13:07.669Z,102737.81
2023-05-02T23:15:34.595Z,102739.47
2023-05-02T23:18:01.590Z,102741.06
2023-05-02T23:20:28.674Z,102740.13
2023-05-02T23:22:56.269Z,102745.25
2023-05-02T23:25:27.024Z,102745.97
2023-05-02T23:27:53.987Z,102739.84
2023-05-02T23:30:21.842Z,102745.03
2023-05-02T23:32:48.960Z,102748.47
2023-05-02T23:35:16.155Z,102742.25
2023-05-02T23:37:44.272Z,102738.69
2023-05-02T23:40:11.510Z,102730.81
2023-05-02T23:42:40.255Z,102741.28
2023-05-02T23:45:09.733Z,102747.25
2023-05-02T23:47:38.090Z,102747.25
2023-05-02T23:50:06.131Z,102750.69
2023-05-02T23:52:33.955Z,102756.78
2023-05-02T23:55:01.105Z,102758.44
2023-05-02T23:57:30.964Z,102763.66
2023-05-02T23:59:57.961Z,102762.72
